sensor_id;sensor_type;location;lat;lon;timestamp;temperature;humidity
15384;DHT22;7790;53.022;12.968;2023-06-04T00:03:46;18.80;39.40
15384;DHT22;7790;53.022;12.968;2023-06-04T00:07:47;18.80;39.40
15384;DHT22;7790;53.022;12.968;2023-06-04T00:11:48;18.80;39.40
15384;DHT22;7790;53.022;12.968;2023-06-04T00:15:49;18.70;39.30
15384;DHT22;7790;53.022;12.968;2023-06-04T00:19:50;18.70;39.30
15384;DHT22;7790;53.022;12.968;2023-06-04T00:23:51;18.70;39.30
15384;DHT22;7790;53.022;12.968;2023-06-04T00:27:51;18.70;39.30
15384;DHT22;7790;53.022;12.968;2023-06-04T00:31:52;18.70;39.20
15384;DHT22;7790;53.022;12.968;2023-06-04T00:35:53;18.70;39.20
15384;DHT22;7790;53.022;12.968;2023-06-04T00:39:54;18.60;39.10
15384;DHT22;7790;53.022;12.968;2023-06-04T00:43:58;18.60;39.10
15384;DHT22;7790;53.022;12.968;2023-06-04T00:48:02;18.60;39.10
15384;DHT22;7790;53.022;12.968;2023-06-04T00:52:03;18.60;39.10
15384;DHT22;7790;53.022;12.968;2023-06-04T00:56:05;18.60;39.10
15384;DHT22;7790;53.022;12.968;2023-06-04T01:00:06;18.50;39.10
15384;DHT22;7790;53.022;12.968;2023-06-04T01:04:26;18.50;39.10
15384;DHT22;7790;53.022;12.968;2023-06-04T01:08:29;18.50;39.20
15384;DHT22;7790;53.022;12.968;2023-06-04T01:12:30;18.50;39.20
15384;DHT22;7790;53.022;12.968;2023-06-04T01:16:45;18.50;39.10
15384;DHT22;7790;53.022;12.968;2023-06-04T01:20:48;18.50;39.10
15384;DHT22;7790;53.022;12.968;2023-06-04T01:24:53;18.50;39.10
15384;DHT22;7790;53.022;12.968;2023-06-04T01:28:58;18.50;39.70
15384;DHT22;7790;53.022;12.968;2023-06-04T01:33:01;18.40;39.10
15384;DHT22;7790;53.022;12.968;2023-06-04T01:37:02;18.40;39.10
15384;DHT22;7790;53.022;12.968;2023-06-04T01:41:04;18.40;39.10
15384;DHT22;7790;53.022;12.968;2023-06-04T01:45:05;18.40;39.20
15384;DHT22;7790;53.022;12.968;2023-06-04T01:49:06;18.40;39.20
15384;DHT22;7790;53.022;12.968;2023-06-04T01:53:07;18.40;39.10
15384;DHT22;7790;53.022;12.968;2023-06-04T01:57:09;18.40;39.10
15384;DHT22;7790;53.022;12.968;2023-06-04T02:01:10;18.30;39.10
15384;DHT22;7790;53.022;12.968;2023-06-04T02:05:11;18.30;39.10
15384;DHT22;7790;53.022;12.968;2023-06-04T02:09:12;18.30;39.10
15384;DHT22;7790;53.022;12.968;2023-06-04T02:13:14;18.30;39.00
15384;DHT22;7790;53.022;12.968;2023-06-04T02:17:15;18.30;38.90
15384;DHT22;7790;53.022;12.968;2023-06-04T02:21:16;18.30;38.80
15384;DHT22;7790;53.022;12.968;2023-06-04T02:25:17;18.20;38.70
15384;DHT22;7790;53.022;12.968;2023-06-04T02:29:19;18.20;38.70
15384;DHT22;7790;53.022;12.968;2023-06-04T02:33:19;18.20;38.70
15384;DHT22;7790;53.022;12.968;2023-06-04T02:37:21;18.20;38.60
15384;DHT22;7790;53.022;12.968;2023-06-04T02:41:23;18.20;38.60
15384;DHT22;7790;53.022;12.968;2023-06-04T02:45:24;18.20;38.50
15384;DHT22;7790;53.022;12.968;2023-06-04T02:49:25;18.10;38.40
15384;DHT22;7790;53.022;12.968;2023-06-04T02:53:26;18.10;38.50
15384;DHT22;7790;53.022;12.968;2023-06-04T02:57:27;18.10;38.50
15384;DHT22;7790;53.022;12.968;2023-06-04T03:01:28;18.10;38.40
15384;DHT22;7790;53.022;12.968;2023-06-04T03:05:29;18.10;38.40
15384;DHT22;7790;53.022;12.968;2023-06-04T03:09:33;18.10;38.40
15384;DHT22;7790;53.022;12.968;2023-06-04T03:13:35;18.10;38.40
15384;DHT22;7790;53.022;12.968;2023-06-04T03:17:36;18.00;38.40
15384;DHT22;7790;53.022;12.968;2023-06-04T03:21:37;18.00;38.40
15384;DHT22;7790;53.022;12.968;2023-06-04T03:25:40;18.00;38.40
15384;DHT22;7790;53.022;12.968;2023-06-04T03:29:41;18.00;38.40
15384;DHT22;7790;53.022;12.968;2023-06-04T03:33:43;18.00;38.40
15384;DHT22;7790;53.022;12.968;2023-06-04T03:37:44;18.00;38.50
15384;DHT22;7790;53.022;12.968;2023-06-04T03:41:44;18.00;38.60
15384;DHT22;7790;53.022;12.968;2023-06-04T03:45:45;18.00;38.60
15384;DHT22;7790;53.022;12.968;2023-06-04T03:49:46;18.00;38.60
15384;DHT22;7790;53.022;12.968;2023-06-04T03:53:48;18.00;38.60
15384;DHT22;7790;53.022;12.968;2023-06-04T03:57:49;18.00;38.70
15384;DHT22;7790;53.022;12.968;2023-06-04T04:01:50;18.00;38.70
15384;DHT22;7790;53.022;12.968;2023-06-04T04:05:51;18.00;38.70
15384;DHT22;7790;53.022;12.968;2023-06-04T04:09:52;18.00;38.80
15384;DHT22;7790;53.022;12.968;2023-06-04T04:13:53;18.00;38.90
15384;DHT22;7790;53.022;12.968;2023-06-04T04:17:56;18.00;38.90
15384;DHT22;7790;53.022;12.968;2023-06-04T04:21:58;18.00;39.10
15384;DHT22;7790;53.022;12.968;2023-06-04T04:25:59;18.00;39.20
15384;DHT22;7790;53.022;12.968;2023-06-04T04:30:02;18.00;39.20
15384;DHT22;7790;53.022;12.968;2023-06-04T04:34:07;18.00;39.20
15384;DHT22;7790;53.022;12.968;2023-06-04T04:38:11;18.00;39.40
15384;DHT22;7790;53.022;12.968;2023-06-04T04:42:20;18.00;39.50
15384;DHT22;7790;53.022;12.968;2023-06-04T04:46:23;18.00;39.70
15384;DHT22;7790;53.022;12.968;2023-06-04T04:50:26;18.00;39.70
15384;DHT22;7790;53.022;12.968;2023-06-04T04:54:27;18.00;39.80
15384;DHT22;7790;53.022;12.968;2023-06-04T04:58:28;18.00;39.90
15384;DHT22;7790;53.022;12.968;2023-06-04T05:02:30;18.10;40.10
15384;DHT22;7790;53.022;12.968;2023-06-04T05:06:31;18.10;40.20
15384;DHT22;7790;53.022;12.968;2023-06-04T05:10:32;18.10;40.30
15384;DHT22;7790;53.022;12.968;2023-06-04T05:14:34;18.10;40.40
15384;DHT22;7790;53.022;12.968;2023-06-04T05:18:37;18.10;40.50
15384;DHT22;7790;53.022;12.968;2023-06-04T05:22:43;18.20;40.60
15384;DHT22;7790;53.022;12.968;2023-06-04T05:26:44;18.20;40.60
15384;DHT22;7790;53.022;12.968;2023-06-04T05:30:51;18.20;40.70
15384;DHT22;7790;53.022;12.968;2023-06-04T05:34:53;18.20;40.70
15384;DHT22;7790;53.022;12.968;2023-06-04T05:38:58;18.20;40.80
15384;DHT22;7790;53.022;12.968;2023-06-04T05:43:06;18.20;40.90
15384;DHT22;7790;53.022;12.968;2023-06-04T05:47:08;18.20;40.90
15384;DHT22;7790;53.022;12.968;2023-06-04T05:51:09;18.20;41.00
15384;DHT22;7790;53.022;12.968;2023-06-04T05:55:13;18.20;41.00
15384;DHT22;7790;53.022;12.968;2023-06-04T05:59:15;18.30;41.10
15384;DHT22;7790;53.022;12.968;2023-06-04T06:03:17;18.10;41.40
15384;DHT22;7790;53.022;12.968;2023-06-04T06:07:21;18.10;41.70
15384;DHT22;7790;53.022;12.968;2023-06-04T06:11:22;18.10;42.20
15384;DHT22;7790;53.022;12.968;2023-06-04T06:15:23;18.10;41.90
15384;DHT22;7790;53.022;12.968;2023-06-04T06:19:25;18.10;42.20
15384;DHT22;7790;53.022;12.968;2023-06-04T06:23:27;18.10;42.20
15384;DHT22;7790;53.022;12.968;2023-06-04T06:27:41;18.10;42.20
15384;DHT22;7790;53.022;12.968;2023-06-04T06:32:24;18.10;42.30
15384;DHT22;7790;53.022;12.968;2023-06-04T06:37:01;18.20;42.30
15384;DHT22;7790;53.022;12.968;2023-06-04T06:42:06;18.20;42.30
15384;DHT22;7790;53.022;12.968;2023-06-04T06:46:52;18.30;42.30
15384;DHT22;7790;53.022;12.968;2023-06-04T06:51:34;18.30;42.20
15384;DHT22;7790;53.022;12.968;2023-06-04T06:56:17;18.30;42.10
15384;DHT22;7790;53.022;12.968;2023-06-04T07:01:26;18.30;42.20
15384;DHT22;7790;53.022;12.968;2023-06-04T07:05:49;18.30;41.90
15384;DHT22;7790;53.022;12.968;2023-06-04T07:09:50;18.40;41.60
15384;DHT22;7790;53.022;12.968;2023-06-04T07:13:51;18.40;41.30
15384;DHT22;7790;53.022;12.968;2023-06-04T07:17:52;18.40;41.40
15384;DHT22;7790;53.022;12.968;2023-06-04T07:21:55;18.50;41.40
15384;DHT22;7790;53.022;12.968;2023-06-04T07:25:59;18.70;41.70
15384;DHT22;7790;53.022;12.968;2023-06-04T07:30:02;18.70;41.10
15384;DHT22;7790;53.022;12.968;2023-06-04T07:34:10;18.70;41.30
15384;DHT22;7790;53.022;12.968;2023-06-04T07:38:37;18.80;41.10
15384;DHT22;7790;53.022;12.968;2023-06-04T07:48:58;18.80;41.00
15384;DHT22;7790;53.022;12.968;2023-06-04T07:53:09;18.80;40.30
15384;DHT22;7790;53.022;12.968;2023-06-04T07:57:17;18.90;40.30
15384;DHT22;7790;53.022;12.968;2023-06-04T08:01:18;18.90;40.40
15384;DHT22;7790;53.022;12.968;2023-06-04T08:05:19;18.90;40.50
15384;DHT22;7790;53.022;12.968;2023-06-04T08:09:20;19.00;40.10
15384;DHT22;7790;53.022;12.968;2023-06-04T08:13:20;19.00;40.60
15384;DHT22;7790;53.022;12.968;2023-06-04T08:17:21;19.00;40.90
15384;DHT22;7790;53.022;12.968;2023-06-04T08:21:26;19.00;40.70
15384;DHT22;7790;53.022;12.968;2023-06-04T08:25:27;19.00;40.80
15384;DHT22;7790;53.022;12.968;2023-06-04T08:29:28;18.90;40.20
15384;DHT22;7790;53.022;12.968;2023-06-04T08:33:29;18.90;40.20
15384;DHT22;7790;53.022;12.968;2023-06-04T08:37:30;18.90;40.60
15384;DHT22;7790;53.022;12.968;2023-06-04T08:41:43;19.10;41.00
15384;DHT22;7790;53.022;12.968;2023-06-04T08:45:49;19.10;41.20
15384;DHT22;7790;53.022;12.968;2023-06-04T08:49:51;19.10;40.90
15384;DHT22;7790;53.022;12.968;2023-06-04T08:53:52;19.10;40.50
15384;DHT22;7790;53.022;12.968;2023-06-04T08:57:54;19.10;40.70
15384;DHT22;7790;53.022;12.968;2023-06-04T09:01:55;19.10;40.50
15384;DHT22;7790;53.022;12.968;2023-06-04T09:05:57;19.30;40.50
15384;DHT22;7790;53.022;12.968;2023-06-04T09:09:58;19.30;39.50
15384;DHT22;7790;53.022;12.968;2023-06-04T09:14:01;19.40;39.90
15384;DHT22;7790;53.022;12.968;2023-06-04T09:18:04;19.30;39.90
15384;DHT22;7790;53.022;12.968;2023-06-04T09:22:05;19.30;39.90
15384;DHT22;7790;53.022;12.968;2023-06-04T09:31:35;19.30;39.80
15384;DHT22;7790;53.022;12.968;2023-06-04T09:35:37;19.30;39.20
15384;DHT22;7790;53.022;12.968;2023-06-04T09:39:38;19.30;39.20
15384;DHT22;7790;53.022;12.968;2023-06-04T09:43:40;19.30;39.40
15384;DHT22;7790;53.022;12.968;2023-06-04T09:47:44;19.40;39.80
15384;DHT22;7790;53.022;12.968;2023-06-04T09:51:48;19.30;39.60
15384;DHT22;7790;53.022;12.968;2023-06-04T09:55:56;19.30;39.60
15384;DHT22;7790;53.022;12.968;2023-06-04T09:59:59;19.30;39.80
15384;DHT22;7790;53.022;12.968;2023-06-04T10:04:03;19.30;40.10
15384;DHT22;7790;53.022;12.968;2023-06-04T10:08:04;19.30;40.30
15384;DHT22;7790;53.022;12.968;2023-06-04T10:12:06;19.30;40.50
15384;DHT22;7790;53.022;12.968;2023-06-04T10:16:07;19.30;40.50
15384;DHT22;7790;53.022;12.968;2023-06-04T10:20:08;19.30;40.50
15384;DHT22;7790;53.022;12.968;2023-06-04T10:24:13;19.30;40.70
15384;DHT22;7790;53.022;12.968;2023-06-04T10:28:15;19.30;40.80
15384;DHT22;7790;53.022;12.968;2023-06-04T10:32:18;19.30;40.80
15384;DHT22;7790;53.022;12.968;2023-06-04T10:36:22;19.30;40.90
15384;DHT22;7790;53.022;12.968;2023-06-04T10:40:32;19.30;41.00
15384;DHT22;7790;53.022;12.968;2023-06-04T10:44:46;19.30;41.10
15384;DHT22;7790;53.022;12.968;2023-06-04T10:48:52;19.40;40.80
15384;DHT22;7790;53.022;12.968;2023-06-04T10:52:54;19.40;40.70
15384;DHT22;7790;53.022;12.968;2023-06-04T10:56:56;19.40;40.80
15384;DHT22;7790;53.022;12.968;2023-06-04T11:00:57;19.40;40.80
15384;DHT22;7790;53.022;12.968;2023-06-04T11:05:02;19.50;41.10
15384;DHT22;7790;53.022;12.968;2023-06-04T11:09:04;19.70;40.90
15384;DHT22;7790;53.022;12.968;2023-06-04T11:13:08;19.60;40.90
15384;DHT22;7790;53.022;12.968;2023-06-04T11:17:10;19.60;41.10
15384;DHT22;7790;53.022;12.968;2023-06-04T11:21:12;19.60;41.20
15384;DHT22;7790;53.022;12.968;2023-06-04T11:25:15;19.60;41.40
15384;DHT22;7790;53.022;12.968;2023-06-04T11:29:17;19.60;41.50
15384;DHT22;7790;53.022;12.968;2023-06-04T11:33:17;19.50;41.70
15384;DHT22;7790;53.022;12.968;2023-06-04T11:37:18;19.50;41.60
15384;DHT22;7790;53.022;12.968;2023-06-04T11:41:20;19.50;41.50
15384;DHT22;7790;53.022;12.968;2023-06-04T11:45:22;19.50;41.50
15384;DHT22;7790;53.022;12.968;2023-06-04T11:49:23;19.70;41.60
15384;DHT22;7790;53.022;12.968;2023-06-04T11:53:24;19.70;41.30
15384;DHT22;7790;53.022;12.968;2023-06-04T11:57:26;19.80;41.40
15384;DHT22;7790;53.022;12.968;2023-06-04T12:01:27;19.90;41.60
15384;DHT22;7790;53.022;12.968;2023-06-04T12:05:31;19.90;41.90
15384;DHT22;7790;53.022;12.968;2023-06-04T12:09:35;19.90;42.10
15384;DHT22;7790;53.022;12.968;2023-06-04T12:13:39;19.90;42.30
15384;DHT22;7790;53.022;12.968;2023-06-04T12:17:51;19.90;42.20
15384;DHT22;7790;53.022;12.968;2023-06-04T12:22:06;19.80;42.20
15384;DHT22;7790;53.022;12.968;2023-06-04T12:26:07;19.80;42.20
15384;DHT22;7790;53.022;12.968;2023-06-04T12:30:08;19.80;42.10
15384;DHT22;7790;53.022;12.968;2023-06-04T12:34:13;19.80;42.10
15384;DHT22;7790;53.022;12.968;2023-06-04T12:38:14;19.70;41.90
15384;DHT22;7790;53.022;12.968;2023-06-04T12:42:15;19.70;41.90
15384;DHT22;7790;53.022;12.968;2023-06-04T12:46:16;19.80;41.90
15384;DHT22;7790;53.022;12.968;2023-06-04T12:50:17;19.70;41.90
15384;DHT22;7790;53.022;12.968;2023-06-04T12:54:19;19.70;41.70
15384;DHT22;7790;53.022;12.968;2023-06-04T12:58:20;19.60;41.70
15384;DHT22;7790;53.022;12.968;2023-06-04T13:02:21;19.60;41.80
15384;DHT22;7790;53.022;12.968;2023-06-04T13:06:22;19.60;41.90
15384;DHT22;7790;53.022;12.968;2023-06-04T13:10:23;19.60;41.90
15384;DHT22;7790;53.022;12.968;2023-06-04T13:14:24;19.60;41.90
15384;DHT22;7790;53.022;12.968;2023-06-04T13:18:26;19.60;41.90
15384;DHT22;7790;53.022;12.968;2023-06-04T13:22:27;19.60;41.90
15384;DHT22;7790;53.022;12.968;2023-06-04T13:26:28;19.60;42.00
15384;DHT22;7790;53.022;12.968;2023-06-04T13:30:29;19.60;41.90
15384;DHT22;7790;53.022;12.968;2023-06-04T13:34:31;19.60;41.90
15384;DHT22;7790;53.022;12.968;2023-06-04T13:38:32;19.60;42.00
15384;DHT22;7790;53.022;12.968;2023-06-04T13:42:34;19.60;41.90
15384;DHT22;7790;53.022;12.968;2023-06-04T13:46:34;19.50;41.90
15384;DHT22;7790;53.022;12.968;2023-06-04T13:50:35;19.50;42.00
15384;DHT22;7790;53.022;12.968;2023-06-04T13:54:36;19.50;42.00
15384;DHT22;7790;53.022;12.968;2023-06-04T13:58:37;19.50;42.10
15384;DHT22;7790;53.022;12.968;2023-06-04T14:02:38;19.50;42.10
15384;DHT22;7790;53.022;12.968;2023-06-04T14:06:39;19.50;42.20
15384;DHT22;7790;53.022;12.968;2023-06-04T14:10:40;19.60;42.30
15384;DHT22;7790;53.022;12.968;2023-06-04T14:14:41;19.60;42.50
15384;DHT22;7790;53.022;12.968;2023-06-04T14:18:42;19.60;42.60
15384;DHT22;7790;53.022;12.968;2023-06-04T14:22:43;19.70;42.80
15384;DHT22;7790;53.022;12.968;2023-06-04T14:26:44;19.70;42.90
15384;DHT22;7790;53.022;12.968;2023-06-04T14:30:45;19.60;43.00
15384;DHT22;7790;53.022;12.968;2023-06-04T14:34:46;19.60;43.10
15384;DHT22;7790;53.022;12.968;2023-06-04T14:38:47;19.60;43.20
15384;DHT22;7790;53.022;12.968;2023-06-04T14:42:48;19.60;43.30
15384;DHT22;7790;53.022;12.968;2023-06-04T14:46:49;19.60;43.30
15384;DHT22;7790;53.022;12.968;2023-06-04T14:50:51;19.70;43.40
15384;DHT22;7790;53.022;12.968;2023-06-04T14:54:56;19.70;43.40
15384;DHT22;7790;53.022;12.968;2023-06-04T14:58:57;19.70;43.40
15384;DHT22;7790;53.022;12.968;2023-06-04T15:02:58;19.70;43.30
15384;DHT22;7790;53.022;12.968;2023-06-04T15:07:00;19.70;43.30
15384;DHT22;7790;53.022;12.968;2023-06-04T15:11:01;19.60;43.30
15384;DHT22;7790;53.022;12.968;2023-06-04T15:15:02;19.60;43.30
15384;DHT22;7790;53.022;12.968;2023-06-04T15:19:03;19.60;43.40
15384;DHT22;7790;53.022;12.968;2023-06-04T15:23:04;19.60;43.50
15384;DHT22;7790;53.022;12.968;2023-06-04T15:27:05;19.60;43.50
15384;DHT22;7790;53.022;12.968;2023-06-04T15:31:05;19.60;43.50
15384;DHT22;7790;53.022;12.968;2023-06-04T15:35:06;19.60;43.50
15384;DHT22;7790;53.022;12.968;2023-06-04T15:39:07;19.60;43.60
15384;DHT22;7790;53.022;12.968;2023-06-04T15:43:08;19.60;43.50
15384;DHT22;7790;53.022;12.968;2023-06-04T15:47:09;19.60;43.50
15384;DHT22;7790;53.022;12.968;2023-06-04T15:51:10;19.60;43.40
15384;DHT22;7790;53.022;12.968;2023-06-04T15:55:12;19.60;43.40
15384;DHT22;7790;53.022;12.968;2023-06-04T15:59:13;19.60;43.40
15384;DHT22;7790;53.022;12.968;2023-06-04T16:03:14;19.60;43.30
15384;DHT22;7790;53.022;12.968;2023-06-04T16:07:15;19.60;43.30
15384;DHT22;7790;53.022;12.968;2023-06-04T16:11:16;19.60;43.30
15384;DHT22;7790;53.022;12.968;2023-06-04T16:15:17;19.60;43.30
15384;DHT22;7790;53.022;12.968;2023-06-04T16:19:18;19.60;43.20
15384;DHT22;7790;53.022;12.968;2023-06-04T16:23:18;19.60;43.30
15384;DHT22;7790;53.022;12.968;2023-06-04T16:27:19;19.60;43.10
15384;DHT22;7790;53.022;12.968;2023-06-04T16:31:20;19.60;43.10
15384;DHT22;7790;53.022;12.968;2023-06-04T16:35:21;19.60;43.10
15384;DHT22;7790;53.022;12.968;2023-06-04T16:39:22;19.70;43.30
15384;DHT22;7790;53.022;12.968;2023-06-04T16:43:23;19.70;43.30
15384;DHT22;7790;53.022;12.968;2023-06-04T16:47:24;19.70;43.30
15384;DHT22;7790;53.022;12.968;2023-06-04T16:51:25;19.70;43.40
15384;DHT22;7790;53.022;12.968;2023-06-04T16:55:30;19.70;43.30
15384;DHT22;7790;53.022;12.968;2023-06-04T16:59:46;19.70;43.40
15384;DHT22;7790;53.022;12.968;2023-06-04T17:03:47;19.60;43.30
15384;DHT22;7790;53.022;12.968;2023-06-04T17:07:47;19.70;43.30
15384;DHT22;7790;53.022;12.968;2023-06-04T17:11:48;19.80;43.90
15384;DHT22;7790;53.022;12.968;2023-06-04T17:15:49;19.70;43.50
15384;DHT22;7790;53.022;12.968;2023-06-04T17:19:50;19.70;43.60
15384;DHT22;7790;53.022;12.968;2023-06-04T17:23:51;19.70;43.70
15384;DHT22;7790;53.022;12.968;2023-06-04T17:27:52;19.70;43.80
15384;DHT22;7790;53.022;12.968;2023-06-04T17:31:53;19.70;43.80
15384;DHT22;7790;53.022;12.968;2023-06-04T17:35:53;19.70;43.80
15384;DHT22;7790;53.022;12.968;2023-06-04T17:39:56;19.80;43.90
15384;DHT22;7790;53.022;12.968;2023-06-04T17:43:57;19.80;43.90
15384;DHT22;7790;53.022;12.968;2023-06-04T17:47:58;19.70;43.40
15384;DHT22;7790;53.022;12.968;2023-06-04T17:52:00;19.70;43.30
15384;DHT22;7790;53.022;12.968;2023-06-04T17:56:02;19.70;43.20
15384;DHT22;7790;53.022;12.968;2023-06-04T18:00:03;19.80;43.40
15384;DHT22;7790;53.022;12.968;2023-06-04T18:04:12;19.70;43.60
15384;DHT22;7790;53.022;12.968;2023-06-04T18:08:13;19.70;43.80
15384;DHT22;7790;53.022;12.968;2023-06-04T18:12:14;19.70;44.00
15384;DHT22;7790;53.022;12.968;2023-06-04T18:16:15;19.70;44.10
15384;DHT22;7790;53.022;12.968;2023-06-04T18:20:16;19.70;44.20
15384;DHT22;7790;53.022;12.968;2023-06-04T18:24:17;19.80;44.10
15384;DHT22;7790;53.022;12.968;2023-06-04T18:28:18;19.80;44.20
15384;DHT22;7790;53.022;12.968;2023-06-04T18:32:19;19.80;44.10
15384;DHT22;7790;53.022;12.968;2023-06-04T18:36:20;19.90;44.50
15384;DHT22;7790;53.022;12.968;2023-06-04T18:40:21;19.90;44.40
15384;DHT22;7790;53.022;12.968;2023-06-04T18:44:22;19.90;44.40
15384;DHT22;7790;53.022;12.968;2023-06-04T18:48:23;20.00;44.20
15384;DHT22;7790;53.022;12.968;2023-06-04T18:52:25;19.90;44.40
15384;DHT22;7790;53.022;12.968;2023-06-04T18:56:26;19.90;44.50
15384;DHT22;7790;53.022;12.968;2023-06-04T19:00:29;19.90;44.70
15384;DHT22;7790;53.022;12.968;2023-06-04T19:04:30;19.90;44.80
15384;DHT22;7790;53.022;12.968;2023-06-04T19:08:31;19.90;45.00
15384;DHT22;7790;53.022;12.968;2023-06-04T19:12:31;19.90;44.70
15384;DHT22;7790;53.022;12.968;2023-06-04T19:16:32;20.00;44.30
15384;DHT22;7790;53.022;12.968;2023-06-04T19:20:33;19.90;43.90
15384;DHT22;7790;53.022;12.968;2023-06-04T19:24:35;19.90;43.50
15384;DHT22;7790;53.022;12.968;2023-06-04T19:28:36;19.90;41.70
15384;DHT22;7790;53.022;12.968;2023-06-04T19:32:38;19.80;41.40
15384;DHT22;7790;53.022;12.968;2023-06-04T19:36:39;19.80;41.60
15384;DHT22;7790;53.022;12.968;2023-06-04T19:40:40;19.80;41.10
15384;DHT22;7790;53.022;12.968;2023-06-04T19:44:41;19.80;40.70
15384;DHT22;7790;53.022;12.968;2023-06-04T19:48:44;19.80;40.60
15384;DHT22;7790;53.022;12.968;2023-06-04T19:52:45;19.70;40.70
15384;DHT22;7790;53.022;12.968;2023-06-04T19:56:46;19.70;40.80
15384;DHT22;7790;53.022;12.968;2023-06-04T20:00:48;19.70;41.00
15384;DHT22;7790;53.022;12.968;2023-06-04T20:04:49;19.50;41.20
15384;DHT22;7790;53.022;12.968;2023-06-04T20:08:53;19.50;41.40
15384;DHT22;7790;53.022;12.968;2023-06-04T20:12:55;19.50;41.50
15384;DHT22;7790;53.022;12.968;2023-06-04T20:16:56;19.40;41.50
15384;DHT22;7790;53.022;12.968;2023-06-04T20:20:59;19.40;41.60
15384;DHT22;7790;53.022;12.968;2023-06-04T20:25:00;19.30;41.60
15384;DHT22;7790;53.022;12.968;2023-06-04T20:29:01;19.30;41.60
15384;DHT22;7790;53.022;12.968;2023-06-04T20:33:02;19.30;41.60
15384;DHT22;7790;53.022;12.968;2023-06-04T20:37:03;19.20;41.70
15384;DHT22;7790;53.022;12.968;2023-06-04T20:41:04;19.20;41.60
15384;DHT22;7790;53.022;12.968;2023-06-04T20:45:05;19.10;41.60
15384;DHT22;7790;53.022;12.968;2023-06-04T20:49:07;19.20;41.90
15384;DHT22;7790;53.022;12.968;2023-06-04T20:53:08;19.20;41.70
15384;DHT22;7790;53.022;12.968;2023-06-04T20:57:09;19.20;41.70
15384;DHT22;7790;53.022;12.968;2023-06-04T21:01:11;19.20;41.80
15384;DHT22;7790;53.022;12.968;2023-06-04T21:05:12;19.10;42.00
15384;DHT22;7790;53.022;12.968;2023-06-04T21:09:13;19.10;42.20
15384;DHT22;7790;53.022;12.968;2023-06-04T21:13:13;19.10;42.30
15384;DHT22;7790;53.022;12.968;2023-06-04T21:17:16;19.10;42.50
15384;DHT22;7790;53.022;12.968;2023-06-04T21:21:17;19.10;42.70
15384;DHT22;7790;53.022;12.968;2023-06-04T21:25:18;19.20;42.70
15384;DHT22;7790;53.022;12.968;2023-06-04T21:29:19;19.10;42.60
15384;DHT22;7790;53.022;12.968;2023-06-04T21:33:20;19.10;42.70
15384;DHT22;7790;53.022;12.968;2023-06-04T21:37:21;19.10;42.90
15384;DHT22;7790;53.022;12.968;2023-06-04T21:41:21;19.10;43.00
15384;DHT22;7790;53.022;12.968;2023-06-04T21:45:23;19.10;43.10
15384;DHT22;7790;53.022;12.968;2023-06-04T21:49:24;19.00;43.20
15384;DHT22;7790;53.022;12.968;2023-06-04T21:53:25;18.90;43.20
15384;DHT22;7790;53.022;12.968;2023-06-04T21:57:26;18.90;43.40
15384;DHT22;7790;53.022;12.968;2023-06-04T22:01:26;18.90;43.50
15384;DHT22;7790;53.022;12.968;2023-06-04T22:05:27;18.90;43.40
15384;DHT22;7790;53.022;12.968;2023-06-04T22:09:29;18.90;43.50
15384;DHT22;7790;53.022;12.968;2023-06-04T22:13:30;18.80;43.40
15384;DHT22;7790;53.022;12.968;2023-06-04T22:17:31;18.70;43.60
15384;DHT22;7790;53.022;12.968;2023-06-04T22:21:32;18.70;43.70
15384;DHT22;7790;53.022;12.968;2023-06-04T22:25:33;18.70;43.70
15384;DHT22;7790;53.022;12.968;2023-06-04T22:29:34;18.70;43.60
15384;DHT22;7790;53.022;12.968;2023-06-04T22:33:35;18.70;43.60
15384;DHT22;7790;53.022;12.968;2023-06-04T22:37:35;18.60;43.60
15384;DHT22;7790;53.022;12.968;2023-06-04T22:41:37;18.60;43.60
15384;DHT22;7790;53.022;12.968;2023-06-04T22:45:37;18.60;43.50
15384;DHT22;7790;53.022;12.968;2023-06-04T22:49:41;18.60;43.50
15384;DHT22;7790;53.022;12.968;2023-06-04T22:53:43;18.50;43.40
15384;DHT22;7790;53.022;12.968;2023-06-04T22:57:44;18.40;43.60
15384;DHT22;7790;53.022;12.968;2023-06-04T23:01:45;18.40;43.70
15384;DHT22;7790;53.022;12.968;2023-06-04T23:05:47;18.40;43.70
15384;DHT22;7790;53.022;12.968;2023-06-04T23:09:48;18.40;43.90
15384;DHT22;7790;53.022;12.968;2023-06-04T23:13:50;18.30;43.80
15384;DHT22;7790;53.022;12.968;2023-06-04T23:17:51;18.20;44.00
15384;DHT22;7790;53.022;12.968;2023-06-04T23:21:52;18.20;44.10
15384;DHT22;7790;53.022;12.968;2023-06-04T23:25:53;18.20;44.00
15384;DHT22;7790;53.022;12.968;2023-06-04T23:29:54;18.20;43.90
15384;DHT22;7790;53.022;12.968;2023-06-04T23:33:55;18.20;43.80
15384;DHT22;7790;53.022;12.968;2023-06-04T23:37:56;18.10;43.90
15384;DHT22;7790;53.022;12.968;2023-06-04T23:41:57;18.10;43.90
15384;DHT22;7790;53.022;12.968;2023-06-04T23:45:57;18.10;43.80
15384;DHT22;7790;53.022;12.968;2023-06-04T23:49:58;18.10;43.70
15384;DHT22;7790;53.022;12.968;2023-06-04T23:53:59;18.00;43.70
15384;DHT22;7790;53.022;12.968;2023-06-04T23:58:00;17.90;43.80
